createdAt,value
2018-02-25T00:00:13.852Z,94553.07
2018-02-25T00:01:53.278Z,94487.33
2018-02-25T00:03:31.028Z,94467.36
2018-02-25T00:05:08.804Z,94440.88
2018-02-25T00:06:47.128Z,94423.33
2018-02-25T00:08:25.631Z,94447.30
2018-02-25T00:10:03.346Z,94447.34
2018-02-25T00:11:41.098Z,94468.19
2018-02-25T00:13:18.920Z,94500.09
2018-02-25T00:14:57.066Z,94560.67
2018-02-25T00:16:36.184Z,94567.94
2018-02-25T00:18:14.841Z,94545.81
2018-02-25T00:19:52.718Z,94482.59
2018-02-25T00:21:31.646Z,94400.81
2018-02-25T00:23:09.625Z,94427.11
2018-02-25T00:24:47.604Z,94397.79
2018-02-25T00:26:26.293Z,94382.06
2018-02-25T00:28:04.590Z,94415.61
2018-02-25T00:29:42.399Z,94433.20
2018-02-25T00:31:20.624Z,94384.62
2018-02-25T00:32:58.352Z,94364.58
2018-02-25T00:34:37.288Z,94339.08
2018-02-25T00:36:15.830Z,94380.77
2018-02-25T00:37:53.947Z,94383.31
2018-02-25T00:39:31.900Z,94430.09
2018-02-25T00:41:11.389Z,94451.45
2018-02-25T00:42:49.180Z,94555.12
2018-02-25T00:44:27.149Z,94513.35
2018-02-25T00:46:06.235Z,94560.63
2018-02-25T00:47:44.785Z,94513.23
2018-02-25T00:49:23.467Z,94526.16
2018-02-25T00:51:02.824Z,94397.79
2018-02-25T00:52:40.721Z,94384.20
2018-02-25T00:54:18.760Z,94386.30
2018-02-25T00:55:56.806Z,94439.48
2018-02-25T00:57:34.572Z,94423.84
2018-02-25T00:59:12.643Z,94429.84
2018-02-25T01:00:51.454Z,94417.00
2018-02-25T01:02:30.686Z,94529.56
2018-02-25T01:04:09.005Z,94614.05
2018-02-25T01:05:47.744Z,94610.66
2018-02-25T01:07:26.904Z,94608.38
2018-02-25T01:09:05.419Z,94598.63
2018-02-25T01:10:43.566Z,94545.30
2018-02-25T01:12:21.468Z,94467.77
2018-02-25T01:14:00.480Z,94424.22
2018-02-25T01:15:39.003Z,94360.75
2018-02-25T01:17:17.262Z,94396.16
2018-02-25T01:18:56.252Z,94487.38
2018-02-25T01:20:35.909Z,94420.36
2018-02-25T01:22:13.905Z,94393.14
2018-02-25T01:23:52.252Z,94438.27
2018-02-25T01:25:30.355Z,94535.09
2018-02-25T01:27:08.221Z,94425.05
2018-02-25T01:28:46.212Z,94412.77
2018-02-25T01:30:26.776Z,94501.39
2018-02-25T01:32:05.036Z,94427.23
2018-02-25T01:33:44.156Z,94417.38
2018-02-25T01:35:25.428Z,94472.81
2018-02-25T01:37:03.760Z,94370.53
2018-02-25T01:38:41.953Z,94430.60
2018-02-25T01:40:20.319Z,94467.77
2018-02-25T01:43:38.241Z,94321.17
2018-02-25T01:45:17.834Z,94262.00
2018-02-25T01:46:56.716Z,94225.00
2018-02-25T01:48:35.806Z,94172.17
2018-02-25T01:50:14.755Z,94155.53
2018-02-25T01:51:52.958Z,94223.70
2018-02-25T01:53:31.187Z,94214.39
2018-02-25T01:55:09.920Z,94144.10
2018-02-25T01:56:48.131Z,94106.63
2018-02-25T01:58:27.374Z,94162.41
2018-02-25T02:00:06.351Z,94115.17
2018-02-25T02:01:46.083Z,94065.90
2018-02-25T02:03:24.979Z,94084.24
2018-02-25T02:05:03.461Z,94076.02
2018-02-25T02:06:44.955Z,94058.29
2018-02-25T02:08:23.739Z,94013.96
2018-02-25T02:10:02.182Z,94006.82
2018-02-25T02:11:40.224Z,94013.59
2018-02-25T02:13:18.556Z,94114.34
2018-02-25T02:14:58.140Z,94155.91
2018-02-25T02:16:36.969Z,94167.88
2018-02-25T02:18:16.156Z,94152.15
2018-02-25T02:19:54.842Z,94183.64
2018-02-25T02:21:33.234Z,94212.97
2018-02-25T02:23:11.624Z,94321.52
2018-02-25T02:24:50.053Z,94340.63
2018-02-25T02:26:28.676Z,94244.47
2018-02-25T02:28:07.064Z,94232.24
2018-02-25T02:29:46.716Z,94223.65
2018-02-25T02:31:25.099Z,94229.05
2018-02-25T02:33:03.332Z,94132.08
2018-02-25T02:34:41.922Z,94144.94
2018-02-25T02:36:21.280Z,94124.08
2018-02-25T02:37:59.925Z,94093.44
2018-02-25T02:39:38.119Z,94059.91
2018-02-25T02:41:17.367Z,94148.79
2018-02-25T02:42:56.491Z,94093.44
2018-02-25T02:44:35.894Z,94105.75
2018-02-25T02:46:15.190Z,94064.94
2018-02-25T02:47:53.946Z,94107.05
2018-02-25T02:49:32.985Z,94071.76
2018-02-25T02:51:11.771Z,94036.47
2018-02-25T02:52:50.205Z,94016.56
2018-02-25T02:54:28.311Z,93979.49
2018-02-25T02:56:06.999Z,94078.16
2018-02-25T02:57:45.455Z,94042.92
2018-02-25T02:59:23.807Z,93989.28
2018-02-25T03:01:02.110Z,94009.38
2018-02-25T03:02:41.348Z,93987.75
2018-02-25T03:04:19.668Z,93977.48
2018-02-25T03:05:58.143Z,93969.79
2018-02-25T03:07:36.601Z,93998.69
2018-02-25T03:09:14.773Z,93975.30
2018-02-25T03:10:52.905Z,93977.78
2018-02-25T03:12:31.941Z,94001.58
2018-02-25T03:14:10.104Z,93957.45
2018-02-25T03:15:48.818Z,93983.02
2018-02-25T03:17:27.184Z,93985.57
2018-02-25T03:19:05.513Z,94067.95
2018-02-25T03:20:43.539Z,94050.87
2018-02-25T03:22:21.291Z,94109.65
2018-02-25T03:23:59.313Z,94076.95
2018-02-25T03:25:37.143Z,94037.35
2018-02-25T03:27:15.658Z,94075.19
2018-02-25T03:28:53.765Z,94142.34
2018-02-25T03:30:31.765Z,94177.28
2018-02-25T03:32:11.048Z,94224.02
2018-02-25T03:33:50.067Z,94156.38
2018-02-25T03:35:27.881Z,94118.98
2018-02-25T03:37:05.818Z,94043.67
2018-02-25T03:38:43.814Z,93945.25
2018-02-25T03:40:21.603Z,93877.22
2018-02-25T03:41:59.633Z,93924.75
2018-02-25T03:43:39.075Z,93856.39
2018-02-25T03:45:18.530Z,93833.50
2018-02-25T03:46:56.854Z,93879.34
2018-02-25T03:48:35.717Z,93908.70
2018-02-25T03:50:14.174Z,93830.39
2018-02-25T03:51:53.398Z,93747.30
2018-02-25T03:53:31.728Z,93727.09
2018-02-25T03:55:09.908Z,93803.00
2018-02-25T03:56:48.186Z,93776.16
2018-02-25T03:58:25.973Z,93786.73
2018-02-25T04:00:04.991Z,93844.06
2018-02-25T04:01:43.404Z,93835.95
2018-02-25T04:03:22.096Z,93787.20
2018-02-25T04:04:59.947Z,93780.42
2018-02-25T04:06:38.236Z,93743.13
2018-02-25T04:08:15.990Z,93699.45
2018-02-25T04:09:53.800Z,93697.73
2018-02-25T04:11:31.574Z,93648.09
2018-02-25T04:13:10.517Z,93621.44
2018-02-25T04:14:48.376Z,93667.69
2018-02-25T04:16:26.615Z,93763.80
2018-02-25T04:18:04.706Z,93836.78
2018-02-25T04:19:43.155Z,93729.88
2018-02-25T04:21:20.456Z,93745.59
2018-02-25T04:22:58.189Z,93813.01
2018-02-25T04:24:36.406Z,93733.82
2018-02-25T04:26:15.660Z,93678.98
2018-02-25T04:27:54.431Z,93678.23
2018-02-25T04:29:32.702Z,93727.02
2018-02-25T04:31:10.412Z,93705.70
2018-02-25T04:32:47.675Z,93722.38
2018-02-25T04:34:25.212Z,93717.94
2018-02-25T04:36:02.568Z,93735.06
2018-02-25T04:37:40.807Z,93676.52
2018-02-25T04:39:18.253Z,93616.72
2018-02-25T04:40:55.735Z,93602.31
2018-02-25T04:42:33.773Z,93589.22
2018-02-25T04:44:11.093Z,93607.45
2018-02-25T04:45:48.716Z,93606.11
2018-02-25T04:47:26.290Z,93581.17
2018-02-25T04:49:03.590Z,93596.48
2018-02-25T04:50:41.468Z,93550.95
2018-02-25T04:52:19.259Z,93618.84
2018-02-25T04:53:57.180Z,93648.93
2018-02-25T04:55:35.308Z,93682.31
2018-02-25T04:57:12.628Z,93673.61
2018-02-25T04:58:50.637Z,93600.61
2018-02-25T05:00:30.028Z,93651.89
2018-02-25T05:02:08.522Z,93596.53
2018-02-25T05:03:45.904Z,93558.22
2018-02-25T05:05:23.331Z,93553.95
2018-02-25T05:07:01.140Z,93606.16
2018-02-25T05:08:38.765Z,93687.41
2018-02-25T05:10:16.644Z,93726.13
2018-02-25T05:11:54.197Z,93643.38
2018-02-25T05:13:33.101Z,93634.58
2018-02-25T05:15:10.863Z,93614.67
2018-02-25T05:16:48.663Z,93596.02
2018-02-25T05:18:26.123Z,93577.65
2018-02-25T05:20:04.160Z,93611.20
2018-02-25T05:21:42.622Z,93560.70
2018-02-25T05:23:20.242Z,93509.88
2018-02-25T05:24:57.732Z,93516.77
2018-02-25T05:26:35.326Z,93533.23
2018-02-25T05:28:13.833Z,93535.27
2018-02-25T05:29:52.066Z,93606.63
2018-02-25T05:31:30.588Z,93618.92
2018-02-25T05:33:08.274Z,93725.20
2018-02-25T05:34:46.303Z,93665.05
2018-02-25T05:36:23.574Z,93640.00
2018-02-25T05:38:01.043Z,93635.83
2018-02-25T05:39:39.213Z,93578.53
2018-02-25T05:41:16.900Z,93455.30
2018-02-25T05:42:54.320Z,93428.63
2018-02-25T05:44:32.286Z,93462.50
2018-02-25T05:46:09.844Z,93478.19
2018-02-25T05:47:48.031Z,93492.52
2018-02-25T05:49:26.631Z,93593.34
2018-02-25T05:51:04.998Z,93513.70
2018-02-25T05:52:43.552Z,93429.97
2018-02-25T05:54:22.279Z,93404.08
2018-02-25T05:56:00.174Z,93362.16
2018-02-25T05:57:37.913Z,93313.91
2018-02-25T05:59:15.947Z,93331.98
2018-02-25T06:00:54.165Z,93315.53
2018-02-25T06:02:31.792Z,93356.28
2018-02-25T06:04:09.176Z,93341.41
2018-02-25T06:05:46.568Z,93363.45
2018-02-25T06:07:23.945Z,93428.63
2018-02-25T06:09:01.969Z,93404.45
2018-02-25T06:10:39.668Z,93478.19
2018-02-25T06:12:17.480Z,93516.67
2018-02-25T06:13:56.861Z,93540.77
2018-02-25T06:15:35.098Z,93473.47
2018-02-25T06:17:13.445Z,93543.26
2018-02-25T06:18:51.429Z,93512.88
2018-02-25T06:20:29.837Z,93593.05
2018-02-25T06:22:08.216Z,93552.25
2018-02-25T06:23:46.537Z,93637.41
2018-02-25T06:25:24.571Z,93710.23
2018-02-25T06:27:02.797Z,93823.95
2018-02-25T06:28:40.567Z,93894.05
2018-02-25T06:30:21.159Z,93806.94
2018-02-25T06:32:01.257Z,93691.25
2018-02-25T06:33:39.410Z,93706.63
2018-02-25T06:35:17.823Z,93747.25
2018-02-25T06:36:56.749Z,93668.38
2018-02-25T06:38:36.948Z,93727.23
2018-02-25T06:40:15.194Z,93735.39
2018-02-25T06:41:53.480Z,93837.11
2018-02-25T06:43:31.994Z,93870.72
2018-02-25T06:45:10.956Z,93923.40
2018-02-25T06:46:49.515Z,93927.13
2018-02-25T06:48:27.643Z,93894.41
2018-02-25T06:50:05.876Z,93939.08
2018-02-25T06:51:44.730Z,93936.16
2018-02-25T06:53:24.039Z,93925.48
2018-02-25T06:55:02.620Z,93890.66
2018-02-25T06:56:41.863Z,93854.95
2018-02-25T06:58:21.963Z,94028.67
2018-02-25T07:00:01.404Z,94153.59
2018-02-25T07:01:40.796Z,94153.97
2018-02-25T07:03:18.909Z,94125.07
2018-02-25T07:04:57.926Z,94259.67
2018-02-25T07:06:36.102Z,94330.27
2018-02-25T07:08:15.204Z,94220.45
2018-02-25T07:09:53.813Z,94323.84
2018-02-25T07:11:33.560Z,94124.75
2018-02-25T07:13:12.018Z,94018.47
2018-02-25T07:14:50.103Z,94031.28
2018-02-25T07:16:28.845Z,94092.42
2018-02-25T07:18:07.333Z,94077.23
2018-02-25T07:19:46.773Z,94043.91
2018-02-25T07:21:24.770Z,94061.83
2018-02-25T07:23:02.838Z,94062.62
2018-02-25T07:24:41.538Z,93988.34
2018-02-25T07:26:20.299Z,93963.25
2018-02-25T07:27:58.993Z,94009.89
2018-02-25T07:29:37.126Z,94067.39
2018-02-25T07:31:15.605Z,94108.95
2018-02-25T07:32:53.502Z,94174.03
2018-02-25T07:34:33.552Z,94173.70
2018-02-25T07:36:12.027Z,94214.97
2018-02-25T07:37:49.987Z,94202.42
2018-02-25T07:39:28.927Z,94159.50
2018-02-25T07:41:06.874Z,94149.45
2018-02-25T07:42:45.973Z,94139.69
2018-02-25T07:44:23.890Z,94102.17
2018-02-25T07:46:02.168Z,94187.64
2018-02-25T07:47:42.451Z,94185.55
2018-02-25T07:49:24.324Z,94164.23
2018-02-25T07:51:02.387Z,94093.34
2018-02-25T07:52:40.321Z,94127.72
2018-02-25T07:54:18.277Z,94131.94
2018-02-25T07:55:55.992Z,94122.19
2018-02-25T07:57:35.091Z,94063.17
2018-02-25T07:59:13.332Z,94042.66
2018-02-25T08:00:52.606Z,94028.30
2018-02-25T08:02:32.100Z,94163.02
2018-02-25T08:04:10.759Z,94251.97
2018-02-25T08:05:49.448Z,94055.33
2018-02-25T08:07:29.176Z,93941.07
2018-02-25T08:09:07.415Z,93809.53
2018-02-25T08:10:45.206Z,93794.79
2018-02-25T08:12:23.055Z,93771.86
2018-02-25T08:14:01.317Z,93725.16
2018-02-25T08:15:39.533Z,93760.69
2018-02-25T08:17:18.098Z,93753.64
2018-02-25T08:18:56.347Z,93792.61
2018-02-25T08:20:34.787Z,93699.31
2018-02-25T08:22:13.095Z,93737.05
2018-02-25T08:23:51.971Z,93855.00
2018-02-25T08:25:30.141Z,93969.15
2018-02-25T08:27:08.581Z,93892.28
2018-02-25T08:28:46.679Z,93827.23
2018-02-25T08:30:26.397Z,93886.77
2018-02-25T08:32:04.572Z,93866.31
2018-02-25T08:33:42.554Z,93871.88
2018-02-25T08:35:20.564Z,93953.84
2018-02-25T08:36:59.075Z,94004.36
2018-02-25T08:38:37.087Z,94042.66
2018-02-25T08:40:15.765Z,94017.13
2018-02-25T08:41:53.665Z,93953.88
2018-02-25T08:43:32.325Z,93902.53
2018-02-25T08:45:10.370Z,93889.73
2018-02-25T08:46:48.511Z,93929.25
2018-02-25T08:48:26.417Z,93974.62
2018-02-25T08:50:04.316Z,94021.02
2018-02-25T08:51:42.561Z,94060.53
2018-02-25T08:53:20.697Z,94111.97
2018-02-25T08:54:59.588Z,94106.77
2018-02-25T08:56:37.725Z,94109.37
2018-02-25T08:58:21.109Z,94153.63
2018-02-25T09:00:01.087Z,94131.81
2018-02-25T09:01:39.447Z,94079.20
2018-02-25T09:03:17.835Z,94117.46
2018-02-25T09:04:56.310Z,94125.58
2018-02-25T09:06:33.993Z,94156.52
2018-02-25T09:08:12.357Z,94063.87
2018-02-25T09:09:51.880Z,93981.90
2018-02-25T09:11:29.720Z,93957.73
2018-02-25T09:13:07.401Z,93929.20
2018-02-25T09:14:45.166Z,93931.43
2018-02-25T09:16:25.286Z,93953.05
2018-02-25T09:18:03.029Z,93954.30
2018-02-25T09:19:41.148Z,93973.46
2018-02-25T09:21:18.948Z,93939.45
2018-02-25T09:22:58.915Z,94018.84
2018-02-25T09:24:37.845Z,94138.64
2018-02-25T09:26:15.651Z,94149.03
2018-02-25T09:27:54.489Z,94114.11
2018-02-25T09:29:33.686Z,94151.50
2018-02-25T09:31:11.647Z,94194.89
2018-02-25T09:32:49.939Z,94203.82
2018-02-25T09:34:27.809Z,94140.03
2018-02-25T09:36:06.710Z,94179.98
2018-02-25T09:37:44.761Z,94162.19
2018-02-25T09:39:22.528Z,94115.41
2018-02-25T09:41:00.272Z,94084.86
2018-02-25T09:42:38.205Z,94054.25
2018-02-25T09:44:16.212Z,94097.03
2018-02-25T09:45:55.513Z,94217.56
2018-02-25T09:47:34.304Z,94209.56
2018-02-25T09:49:12.461Z,94229.89
2018-02-25T09:50:50.668Z,94263.44
2018-02-25T09:52:28.281Z,94383.94
2018-02-25T09:54:06.375Z,94349.88
2018-02-25T09:55:44.316Z,94262.23
2018-02-25T09:57:22.348Z,94284.78
2018-02-25T09:59:00.158Z,94221.33
2018-02-25T10:00:39.523Z,94227.23
2018-02-25T10:02:17.917Z,94246.39
2018-02-25T10:03:55.715Z,94246.44
2018-02-25T10:05:33.887Z,94225.94
2018-02-25T10:07:12.265Z,94279.67
2018-02-25T10:08:50.226Z,94301.75
2018-02-25T10:10:28.851Z,94433.39
2018-02-25T10:12:06.428Z,94380.08
2018-02-25T10:13:45.549Z,94382.59
2018-02-25T10:15:25.096Z,94413.34
2018-02-25T10:17:03.406Z,94353.24
2018-02-25T10:18:41.207Z,94421.86
2018-02-25T10:20:19.485Z,94411.08
2018-02-25T10:21:57.443Z,94493.49
2018-02-25T10:23:35.200Z,94373.30
2018-02-25T10:25:12.811Z,94450.06
2018-02-25T10:26:50.771Z,94612.45
2018-02-25T10:28:28.289Z,94697.32
2018-02-25T10:30:05.930Z,94710.64
2018-02-25T10:31:44.230Z,94603.92
2018-02-25T10:33:21.942Z,94549.80
2018-02-25T10:34:59.697Z,94458.08
2018-02-25T10:36:38.842Z,94467.05
2018-02-25T10:38:17.020Z,94559.94
2018-02-25T10:39:54.663Z,94644.50
2018-02-25T10:41:33.761Z,94778.58
2018-02-25T10:43:11.865Z,94816.09
2018-02-25T10:44:49.846Z,94780.23
2018-02-25T10:46:27.934Z,94712.70
2018-02-25T10:48:06.168Z,94604.37
2018-02-25T10:49:44.011Z,94528.92
2018-02-25T10:51:22.087Z,94481.53
2018-02-25T10:53:00.867Z,94652.23
2018-02-25T10:54:38.879Z,94782.38
2018-02-25T10:56:17.116Z,94710.59
2018-02-25T10:57:55.207Z,94578.72
2018-02-25T10:59:34.244Z,94561.33
2018-02-25T11:01:12.055Z,94738.01
2018-02-25T11:02:50.502Z,94819.08
2018-02-25T11:04:28.209Z,94745.25
2018-02-25T11:06:06.014Z,94816.09
2018-02-25T11:07:43.703Z,94921.75
2018-02-25T11:09:21.906Z,94803.23
2018-02-25T11:10:59.670Z,94782.38
2018-02-25T11:12:37.369Z,94636.81
2018-02-25T11:14:15.125Z,94620.27
2018-02-25T11:15:54.471Z,94550.67
2018-02-25T11:17:32.123Z,94568.05
2018-02-25T11:19:09.753Z,94630.89
2018-02-25T11:20:48.601Z,94787.92
2018-02-25T11:22:27.742Z,94887.16
2018-02-25T11:24:05.280Z,94898.27
2018-02-25T11:27:24.026Z,94916.24
2018-02-25T11:29:10.589Z,94787.08
2018-02-25T11:30:49.170Z,94834.94
2018-02-25T11:32:26.810Z,94728.97
2018-02-25T11:34:05.591Z,94843.98
2018-02-25T11:35:43.554Z,94933.74
2018-02-25T11:37:21.386Z,94783.26
2018-02-25T11:38:59.912Z,94691.56
2018-02-25T11:40:37.805Z,94646.69
2018-02-25T11:42:15.906Z,94687.23
2018-02-25T11:43:54.243Z,94836.67
2018-02-25T11:45:32.319Z,94928.14
2018-02-25T11:47:10.797Z,94986.29
2018-02-25T11:48:48.811Z,94903.73
2018-02-25T11:50:26.315Z,94917.08
2018-02-25T11:52:04.638Z,95005.53
2018-02-25T11:53:42.453Z,94985.45
2018-02-25T11:55:20.467Z,94993.91
2018-02-25T11:56:58.053Z,94976.02
2018-02-25T11:58:36.654Z,94976.44
2018-02-25T12:00:17.130Z,94802.02
2018-02-25T12:01:55.984Z,94850.47
2018-02-25T12:03:34.519Z,94926.84
2018-02-25T12:05:12.148Z,94869.65
2018-02-25T12:06:50.416Z,94987.55
2018-02-25T12:08:28.587Z,95003.67
2018-02-25T12:10:06.896Z,95014.00
2018-02-25T12:11:44.587Z,95105.67
2018-02-25T12:13:22.146Z,95118.52
2018-02-25T12:15:00.880Z,95019.14
2018-02-25T12:16:39.423Z,95020.06
2018-02-25T12:18:17.367Z,95081.66
2018-02-25T12:19:56.796Z,95028.61
2018-02-25T12:21:34.632Z,94815.77
2018-02-25T12:23:12.349Z,94777.41
2018-02-25T12:24:50.967Z,94814.88
2018-02-25T12:26:28.794Z,94840.12
2018-02-25T12:28:07.103Z,94957.36
2018-02-25T12:29:44.843Z,95072.67
2018-02-25T12:31:23.114Z,95125.73
2018-02-25T12:33:01.580Z,95121.93
2018-02-25T12:34:39.857Z,95104.74
2018-02-25T12:36:17.575Z,95141.50
2018-02-25T12:37:56.125Z,95120.20
2018-02-25T12:39:34.637Z,95142.80
2018-02-25T12:41:12.925Z,95008.94
2018-02-25T12:42:52.457Z,94990.16
2018-02-25T12:44:30.230Z,95025.67
2018-02-25T12:46:09.207Z,95112.11
2018-02-25T12:47:47.327Z,95074.86
2018-02-25T12:49:26.336Z,95014.96
2018-02-25T12:51:03.976Z,95061.21
2018-02-25T12:52:41.514Z,95015.47
2018-02-25T12:54:20.387Z,95099.22
2018-02-25T12:55:59.655Z,95106.47
2018-02-25T12:57:37.414Z,95004.27
2018-02-25T12:59:14.913Z,94976.14
2018-02-25T13:00:53.705Z,94865.41
2018-02-25T13:02:32.678Z,94846.13
2018-02-25T13:04:10.402Z,94977.86
2018-02-25T13:05:48.165Z,95077.31
2018-02-25T13:07:26.920Z,95047.98
2018-02-25T13:09:05.796Z,94959.81
2018-02-25T13:10:43.858Z,94922.72
2018-02-25T13:12:23.680Z,94924.83
2018-02-25T13:14:02.050Z,94934.63
2018-02-25T13:15:40.373Z,95044.91
2018-02-25T13:17:18.088Z,94932.06
2018-02-25T13:18:56.003Z,95062.98
2018-02-25T13:20:33.945Z,95197.27
2018-02-25T13:22:11.810Z,95222.10
2018-02-25T13:23:49.718Z,95174.55
2018-02-25T13:25:27.389Z,95117.30
2018-02-25T13:27:05.506Z,95129.23
2018-02-25T13:28:43.221Z,95107.78
2018-02-25T13:30:21.454Z,95161.77
2018-02-25T13:32:00.727Z,95011.55
2018-02-25T13:33:39.021Z,95027.02
2018-02-25T13:35:16.634Z,95115.95
2018-02-25T13:36:54.368Z,95145.41
2018-02-25T13:38:32.100Z,95133.53
2018-02-25T13:40:10.134Z,95090.33
2018-02-25T13:41:48.374Z,95063.70
2018-02-25T13:43:26.807Z,94946.63
2018-02-25T13:45:05.301Z,94904.28
2018-02-25T13:46:44.757Z,94956.02
2018-02-25T13:48:23.312Z,95005.16
2018-02-25T13:50:02.868Z,94974.45
2018-02-25T13:51:40.875Z,95053.88
2018-02-25T13:53:20.937Z,95083.84
2018-02-25T13:54:59.497Z,95135.25
2018-02-25T13:56:37.856Z,95088.94
2018-02-25T13:58:18.779Z,95058.64
2018-02-25T13:59:57.018Z,94944.02
2018-02-25T14:01:35.451Z,94921.75
2018-02-25T14:03:14.528Z,95034.63
2018-02-25T14:04:52.483Z,95134.75
2018-02-25T14:06:30.729Z,95034.21
2018-02-25T14:08:08.297Z,94926.09
2018-02-25T14:09:45.956Z,94955.59
2018-02-25T14:11:24.077Z,95008.98
2018-02-25T14:13:02.324Z,95054.39
2018-02-25T14:14:40.555Z,95074.82
2018-02-25T14:16:18.781Z,95150.55
2018-02-25T14:17:56.669Z,95109.97
2018-02-25T14:19:34.931Z,95174.96
2018-02-25T14:21:13.409Z,95216.50
2018-02-25T14:22:52.501Z,95073.56
2018-02-25T14:24:30.312Z,95057.80
2018-02-25T14:26:09.184Z,95115.48
2018-02-25T14:27:46.898Z,95189.09
2018-02-25T14:29:24.552Z,95200.64
2018-02-25T14:31:02.424Z,95201.10
2018-02-25T14:32:40.351Z,95225.52
2018-02-25T14:34:18.038Z,95214.39
2018-02-25T14:35:55.782Z,95241.88
2018-02-25T14:37:33.956Z,95163.41
2018-02-25T14:39:12.437Z,95159.62
2018-02-25T14:40:50.083Z,95091.97
2018-02-25T14:42:27.751Z,95000.02
2018-02-25T14:44:05.833Z,94974.45
2018-02-25T14:45:45.168Z,95043.73
2018-02-25T14:47:22.888Z,95119.41
2018-02-25T14:49:00.288Z,95184.02
2018-02-25T14:50:37.902Z,95167.33
2018-02-25T14:52:16.816Z,95172.89
2018-02-25T14:53:54.521Z,95202.79
2018-02-25T14:55:32.078Z,95063.75
2018-02-25T14:57:12.019Z,95045.72
2018-02-25T14:58:50.458Z,95018.84
2018-02-25T15:00:41.947Z,94903.48
2018-02-25T15:02:23.093Z,94929.91
2018-02-25T15:04:02.322Z,95062.05
2018-02-25T15:05:40.306Z,94977.91
2018-02-25T15:07:17.808Z,95013.28
2018-02-25T15:08:55.961Z,95057.34
2018-02-25T15:10:34.020Z,94996.95
2018-02-25T15:12:11.508Z,94929.95
2018-02-25T15:13:49.237Z,94988.48
2018-02-25T15:15:30.075Z,95061.01
2018-02-25T15:17:09.476Z,94895.70
2018-02-25T15:18:47.333Z,94892.67
2018-02-25T15:20:25.764Z,94993.61
2018-02-25T15:22:04.274Z,95006.04
2018-02-25T15:23:42.691Z,95053.97
2018-02-25T15:25:20.611Z,94960.27
2018-02-25T15:26:58.337Z,94935.51
2018-02-25T15:28:36.298Z,94980.78
2018-02-25T15:30:16.073Z,95040.23
2018-02-25T15:31:54.338Z,95069.27
2018-02-25T15:33:31.978Z,95073.56
2018-02-25T15:35:09.541Z,95062.40
2018-02-25T15:36:47.488Z,95065.02
2018-02-25T15:38:25.956Z,95059.15
2018-02-25T15:40:03.462Z,95063.28
2018-02-25T15:41:42.609Z,95050.47
2018-02-25T15:43:20.091Z,94880.80
2018-02-25T15:44:57.518Z,94822.75
2018-02-25T15:46:36.419Z,94795.83
2018-02-25T15:48:14.698Z,94784.52
2018-02-25T15:49:52.297Z,94855.14
2018-02-25T15:51:31.639Z,95003.80
2018-02-25T15:53:09.582Z,95009.88
2018-02-25T15:54:47.551Z,94864.09
2018-02-25T15:56:25.131Z,94874.80
2018-02-25T15:58:02.940Z,94874.80
2018-02-25T15:59:41.839Z,94855.14
2018-02-25T16:01:19.981Z,94793.60
2018-02-25T16:02:58.381Z,94740.66
2018-02-25T16:04:36.765Z,94749.24
2018-02-25T16:06:14.915Z,94782.49
2018-02-25T16:07:52.814Z,94889.39
2018-02-25T16:09:30.259Z,94966.71
2018-02-25T16:11:07.866Z,94995.72
2018-02-25T16:12:45.364Z,94843.73
2018-02-25T16:14:24.168Z,94812.36
2018-02-25T16:16:02.162Z,94891.53
2018-02-25T16:17:39.609Z,94868.81
2018-02-25T16:19:17.040Z,94797.84
2018-02-25T16:20:55.318Z,94835.08
2018-02-25T16:22:32.952Z,94892.33
2018-02-25T16:24:10.758Z,94879.03
2018-02-25T16:25:49.058Z,94943.13
2018-02-25T16:27:27.883Z,94940.57
2018-02-25T16:29:05.589Z,94927.30
2018-02-25T16:30:43.647Z,94921.33
2018-02-25T16:33:58.839Z,94836.34
2018-02-25T16:35:38.133Z,94799.95
2018-02-25T16:37:15.914Z,94758.11
2018-02-25T16:38:53.722Z,94664.17
2018-02-25T16:40:31.951Z,94724.73
2018-02-25T16:42:10.464Z,94759.41
2018-02-25T16:43:48.104Z,94835.83
2018-02-25T16:45:28.422Z,94848.70
2018-02-25T16:47:06.479Z,94840.08
2018-02-25T16:48:44.061Z,94748.73
2018-02-25T16:50:22.736Z,94732.04
2018-02-25T16:52:00.355Z,94746.12
2018-02-25T16:53:38.519Z,94714.17
2018-02-25T16:55:16.837Z,94698.30
2018-02-25T16:56:54.350Z,94746.97
2018-02-25T16:58:31.954Z,94715.39
2018-02-25T17:00:12.991Z,94709.42
2018-02-25T17:01:52.735Z,94641.14
2018-02-25T17:03:30.627Z,94612.20
2018-02-25T17:05:11.934Z,94636.02
2018-02-25T17:06:50.473Z,94598.93
2018-02-25T17:08:29.168Z,94558.31
2018-02-25T17:10:06.986Z,94547.77
2018-02-25T17:11:45.679Z,94647.99
2018-02-25T17:13:24.637Z,94635.56
2018-02-25T17:15:02.848Z,94590.31
2018-02-25T17:16:41.048Z,94543.45
2018-02-25T17:18:18.844Z,94584.44
2018-02-25T17:19:57.018Z,94525.56
2018-02-25T17:21:34.824Z,94550.67
2018-02-25T17:23:13.858Z,94606.52
2018-02-25T17:24:51.596Z,94622.73
2018-02-25T17:26:30.118Z,94630.93
2018-02-25T17:28:08.631Z,94594.64
2018-02-25T17:29:46.503Z,94658.58
2018-02-25T17:31:25.552Z,94621.57
2018-02-25T17:33:03.223Z,94489.26
2018-02-25T17:34:40.725Z,94538.75
2018-02-25T17:36:18.397Z,94638.58
2018-02-25T17:37:56.863Z,94738.01
2018-02-25T17:39:34.995Z,94767.40
2018-02-25T17:41:12.663Z,94691.44
2018-02-25T17:42:50.824Z,94663.28
2018-02-25T17:44:29.427Z,94638.62
2018-02-25T17:46:09.271Z,94622.78
2018-02-25T17:47:47.620Z,94708.12
2018-02-25T17:49:25.215Z,94722.16
2018-02-25T17:51:02.999Z,94637.61
2018-02-25T17:52:41.046Z,94691.85
2018-02-25T17:56:03.973Z,94675.72
2018-02-25T17:57:41.433Z,94635.98
2018-02-25T17:59:19.866Z,94650.51
2018-02-25T18:00:58.146Z,94706.82
2018-02-25T18:02:36.115Z,94634.72
2018-02-25T18:04:14.027Z,94662.07
2018-02-25T18:05:53.036Z,94649.30
2018-02-25T18:07:31.299Z,94556.96
2018-02-25T18:09:08.876Z,94537.03
2018-02-25T18:10:46.470Z,94534.47
2018-02-25T18:12:24.688Z,94542.56
2018-02-25T18:14:02.535Z,94562.17
2018-02-25T18:15:40.779Z,94485.72
2018-02-25T18:17:18.662Z,94473.05
2018-02-25T18:18:57.104Z,94500.75
2018-02-25T18:20:34.810Z,94520.86
2018-02-25T18:22:12.459Z,94502.52
2018-02-25T18:23:50.631Z,94587.79
2018-02-25T18:25:28.418Z,94656.39
2018-02-25T18:27:06.272Z,94647.78
2018-02-25T18:28:44.005Z,94588.20
2018-02-25T18:30:22.435Z,94569.36
2018-02-25T18:32:02.283Z,94602.66
2018-02-25T18:33:40.483Z,94499.38
2018-02-25T18:35:18.535Z,94504.16
2018-02-25T18:36:57.051Z,94533.03
2018-02-25T18:38:34.859Z,94482.75
2018-02-25T18:40:12.491Z,94470.41
2018-02-25T18:41:50.138Z,94410.83
2018-02-25T18:43:29.102Z,94462.31
2018-02-25T18:45:06.619Z,94469.19
2018-02-25T18:46:44.983Z,94436.76
2018-02-25T18:48:22.727Z,94424.38
2018-02-25T18:50:00.972Z,94412.42
2018-02-25T18:51:39.272Z,94411.24
2018-02-25T18:53:16.898Z,94377.06
2018-02-25T18:54:54.429Z,94383.15
2018-02-25T18:56:33.716Z,94437.92
2018-02-25T18:58:12.235Z,94390.40
2018-02-25T18:59:50.553Z,94367.38
2018-02-25T19:01:28.670Z,94360.49
2018-02-25T19:03:06.210Z,94440.20
2018-02-25T19:04:44.289Z,94474.77
2018-02-25T19:06:21.861Z,94391.61
2018-02-25T19:07:59.346Z,94397.44
2018-02-25T19:09:37.484Z,94344.18
2018-02-25T19:11:15.414Z,94283.43
2018-02-25T19:12:53.283Z,94252.70
2018-02-25T19:14:31.063Z,94279.95
2018-02-25T19:16:10.712Z,94257.86
2018-02-25T19:17:48.460Z,94240.84
2018-02-25T19:19:27.266Z,94262.94
2018-02-25T19:21:04.846Z,94280.45